Time;durP1;ratioP1;P1;durP2;ratioP2;P2;SDS_P1;SDS_P2;PMS_P1;PMS_P2;Temp;Humidity;BMP_temperature;BMP_pressure;BME280_temperature;BME280_humidity;BME280_pressure;Samples;Min_cycle;Max_cycle;Signal;HPM_P1;HPM_P2
2022/11/20 00:01:05;;;;;;;22.42;15.25;;;-0.10;99.90;;;;;;4932428;29;20661;-66
2022/11/20 00:03:31;;;;;;;;;;;-0.10;99.90;;;;;;4936287;28;20049;-66
2022/11/20 00:06:05;;;;;;;31.20;15.57;;;0.00;99.90;;;;;;4940345;28;19922;-66
2022/11/20 00:08:31;;;;;;;24.58;15.55;;;0.00;99.90;;;;;;4933160;28;20056;-67
2022/11/20 00:10:57;;;;;;;23.10;14.63;;;0.00;99.90;;;;;;4935509;28;20121;-66
2022/11/20 00:13:23;;;;;;;24.30;16.10;;;0.00;99.90;;;;;;4935851;29;20107;-66
2022/11/20 00:15:56;;;;;;;23.42;15.45;;;0.00;99.90;;;;;;4940406;29;20043;-66
2022/11/20 00:18:21;;;;;;;24.98;15.10;;;0.00;99.90;;;;;;4938857;28;20051;-66
2022/11/20 00:20:47;;;;;;;22.30;15.30;;;0.00;99.90;;;;;;4920723;29;20047;-66
2022/11/20 00:23:13;;;;;;;24.70;15.93;;;0.10;99.90;;;;;;4905076;29;20082;-66
2022/11/20 00:25:39;;;;;;;23.17;15.90;;;0.10;99.90;;;;;;4935446;29;20050;-66
2022/11/20 00:28:04;;;;;;;27.75;16.42;;;0.10;99.90;;;;;;4941524;29;20044;-66
2022/11/20 00:30:30;;;;;;;24.20;15.90;;;0.10;99.90;;;;;;4905370;29;20110;-66
2022/11/20 00:32:57;;;;;;;26.33;15.23;;;0.20;99.90;;;;;;4935059;29;20081;-66
2022/11/20 00:35:23;;;;;;;24.98;16.13;;;0.10;99.90;;;;;;4940011;29;20046;-66
2022/11/20 00:37:49;;;;;;;22.17;15.32;;;0.10;99.90;;;;;;4914256;29;20047;-66
2022/11/20 00:40:15;;;;;;;24.38;15.45;;;0.10;99.90;;;;;;4905936;29;20071;-66
2022/11/20 00:42:41;;;;;;;24.50;15.77;;;0.20;99.90;;;;;;4915036;29;20052;-66
2022/11/20 00:45:07;;;;;;;23.42;16.27;;;0.20;99.90;;;;;;4905117;29;20087;-66
2022/11/20 00:47:32;;;;;;;25.52;14.88;;;0.20;99.90;;;;;;4900068;29;20056;-70
2022/11/20 00:49:58;;;;;;;22.63;14.90;;;0.10;99.90;;;;;;4900332;29;20044;-69
2022/11/20 00:52:24;;;;;;;22.27;14.38;;;0.20;99.90;;;;;;4891337;29;20044;-70
2022/11/20 00:54:50;;;;;;;20.67;14.00;;;0.10;99.90;;;;;;4889852;29;20063;-66
2022/11/20 00:57:15;;;;;;;25.98;14.20;;;0.10;99.90;;;;;;4890678;29;20056;-66
2022/11/20 00:59:41;;;;;;;21.67;14.05;;;0.10;99.90;;;;;;4898148;29;20066;-66
2022/11/20 01:02:07;;;;;;;22.25;13.70;;;0.10;99.90;;;;;;4897885;29;20126;-66
2022/11/20 01:04:32;;;;;;;21.70;14.40;;;0.10;99.90;;;;;;4898494;29;20083;-66
2022/11/20 01:06:58;;;;;;;23.40;14.60;;;0.10;99.90;;;;;;4906507;29;20048;-66
2022/11/20 01:09:24;;;;;;;22.70;14.10;;;0.20;99.90;;;;;;4875151;29;20055;-66
2022/11/20 01:11:50;;;;;;;21.33;13.55;;;0.20;99.90;;;;;;4906191;29;20115;-66
2022/11/20 01:14:18;;;;;;;20.95;13.50;;;0.20;99.90;;;;;;4895850;29;20406;-66
2022/11/20 01:16:48;;;;;;;21.63;14.68;;;0.20;99.90;;;;;;4897406;29;20961;-66
2022/11/20 01:19:16;;;;;;;21.27;13.93;;;0.20;99.90;;;;;;4914523;29;20381;-66
2022/11/20 01:21:44;;;;;;;21.48;14.52;;;0.20;99.90;;;;;;4898160;29;20048;-66
2022/11/20 01:24:15;;;;;;;26.10;14.30;;;0.20;99.90;;;;;;4899390;29;20044;-66
2022/11/20 01:26:43;;;;;;;24.10;14.45;;;0.20;99.90;;;;;;4909598;29;20090;-66
2022/11/20 01:29:13;;;;;;;22.02;14.18;;;0.20;99.90;;;;;;4872588;29;20059;-66
2022/11/20 01:31:39;;;;;;;21.38;14.32;;;0.20;99.90;;;;;;4899595;29;20055;-66
2022/11/20 01:34:10;;;;;;;21.38;13.27;;;0.20;99.90;;;;;;4887540;29;21031;-66
2022/11/20 01:36:37;;;;;;;23.15;14.73;;;0.20;99.90;;;;;;4914565;29;20059;-67
2022/11/20 01:39:07;;;;;;;20.55;14.27;;;0.30;99.90;;;;;;4938166;29;20047;-67
2022/11/20 01:44:22;;;;;;;22.55;14.43;;;0.30;99.90;;;;;;4938017;29;20054;-67
2022/11/20 01:47:02;;;;;;;23.13;14.02;;;0.30;99.90;;;;;;4936042;29;20043;-67
2022/11/20 01:49:33;;;;;;;21.88;13.80;;;0.30;99.90;;;;;;4918678;29;20055;-67
2022/11/20 01:52:04;;;;;;;20.15;13.43;;;0.30;99.90;;;;;;4918633;29;20862;-67
2022/11/20 01:54:46;;;;;;;22.85;15.10;;;0.30;99.90;;;;;;4943595;29;20059;-67
2022/11/20 01:57:13;;;;;;;19.13;13.40;;;0.30;99.90;;;;;;4936284;29;20054;-65
2022/11/20 01:59:44;;;;;;;22.20;13.77;;;0.30;99.90;;;;;;4926892;29;20421;-67
2022/11/20 02:02:10;;;;;;;24.17;14.45;;;0.30;99.90;;;;;;4943698;29;20422;-66
2022/11/20 02:04:36;;;;;;;23.08;13.95;;;0.30;99.90;;;;;;4938282;29;20040;-65
2022/11/20 02:07:04;;;;;;;21.75;13.65;;;0.30;99.90;;;;;;4907094;29;20058;-66
2022/11/20 02:09:30;;;;;;;21.02;13.90;;;0.40;99.90;;;;;;4933680;28;20047;-66
2022/11/20 02:11:58;;;;;;;19.98;13.50;;;0.40;99.90;;;;;;4942176;29;20047;-66
2022/11/20 02:14:25;;;;;;;23.60;13.45;;;0.40;99.90;;;;;;4934047;29;20158;-66
2022/11/20 02:16:51;;;;;;;21.30;13.70;;;0.40;99.90;;;;;;4943245;29;20150;-66
2022/11/20 02:19:31;;;;;;;20.05;13.18;;;0.40;99.90;;;;;;4927599;29;20771;-66
2022/11/20 02:22:18;;;;;;;20.58;13.85;;;0.40;99.90;;;;;;4936155;29;21052;-66
2022/11/20 02:24:46;;;;;;;20.80;13.60;;;0.40;99.90;;;;;;4951898;28;20479;-65
2022/11/20 02:27:14;;;;;;;23.05;14.02;;;0.40;99.90;;;;;;4922464;29;20051;-66
2022/11/20 02:30:03;;;;;;;25.17;14.57;;;0.40;99.90;;;;;;4922304;29;20047;-66
2022/11/20 02:32:33;;;;;;;21.63;14.00;;;0.40;99.90;;;;;;4936279;28;20051;-66
2022/11/20 02:35:29;;;;;;;21.25;14.27;;;0.40;99.90;;;;;;4926037;29;20059;-66
2022/11/20 02:37:57;;;;;;;20.95;13.77;;;0.40;99.90;;;;;;4920410;29;20572;-66
2022/11/20 02:40:24;;;;;;;20.30;13.68;;;0.40;99.90;;;;;;4950446;28;20193;-66
2022/11/20 02:42:53;;;;;;;25.42;14.60;;;0.50;99.90;;;;;;4937477;29;20119;-66
2022/11/20 02:45:20;;;;;;;19.50;13.52;;;0.50;99.90;;;;;;4949319;28;20617;-65
2022/11/20 02:47:46;;;;;;;20.08;13.90;;;0.50;99.90;;;;;;4939883;29;20055;-66
2022/11/20 02:50:12;;;;;;;22.40;14.52;;;0.50;99.90;;;;;;4930376;28;20056;-65
2022/11/20 02:52:37;;;;;;;21.17;13.93;;;0.50;99.90;;;;;;4934007;28;20047;-66
2022/11/20 02:55:04;;;;;;;21.02;13.80;;;0.50;99.90;;;;;;4917768;29;20047;-65
2022/11/20 02:57:30;;;;;;;23.17;14.40;;;0.50;99.90;;;;;;4925731;29;20063;-65
2022/11/20 02:59:55;;;;;;;23.73;14.38;;;0.50;99.90;;;;;;4936392;28;20118;-65
2022/11/20 03:02:21;;;;;;;23.30;14.90;;;0.50;99.90;;;;;;4924543;29;20556;-66
2022/11/20 03:04:47;;;;;;;22.83;14.52;;;0.50;99.90;;;;;;4938648;28;20047;-66
2022/11/20 03:07:13;;;;;;;23.88;14.80;;;0.50;99.90;;;;;;4919481;29;20118;-66
2022/11/20 03:09:39;;;;;;;20.27;13.98;;;0.50;99.90;;;;;;4932451;29;20047;-66
2022/11/20 03:12:05;;;;;;;24.48;14.27;;;0.50;99.90;;;;;;4902055;29;20043;-66
2022/11/20 03:14:31;;;;;;;22.50;14.65;;;0.50;99.90;;;;;;4933356;29;20051;-66
2022/11/20 03:16:56;;;;;;;21.75;14.20;;;0.60;99.90;;;;;;4913973;29;20039;-66
2022/11/20 03:19:23;;;;;;;21.33;13.02;;;0.60;99.90;;;;;;4932715;29;20546;-66
2022/11/20 03:21:48;;;;;;;19.80;13.68;;;0.50;99.90;;;;;;4923863;29;20055;-66
2022/11/20 03:24:14;;;;;;;21.80;14.27;;;0.50;99.90;;;;;;4933044;28;20464;-66
2022/11/20 03:26:40;;;;;;;21.20;13.32;;;0.50;99.90;;;;;;4901054;29;20392;-66
2022/11/20 03:29:06;;;;;;;22.05;13.55;;;0.50;99.90;;;;;;4949736;28;20126;-66
2022/11/20 03:31:40;;;;;;;20.10;12.85;;;0.50;99.90;;;;;;4919593;29;20051;-66
2022/11/20 03:34:07;;;;;;;19.63;14.02;;;0.50;99.90;;;;;;4933962;29;20486;-66
2022/11/20 03:36:33;;;;;;;21.13;12.73;;;0.50;99.90;;;;;;4932457;28;20055;-66
2022/11/20 03:38:59;;;;;;;20.38;12.90;;;0.50;99.90;;;;;;4936516;29;20514;-66
2022/11/20 03:41:27;;;;;;;19.45;12.98;;;0.50;99.90;;;;;;4891725;29;20055;-66
2022/11/20 03:44:04;;;;;;;23.27;12.82;;;0.50;99.90;;;;;;4931864;29;20502;-66
2022/11/20 03:46:30;;;;;;;19.33;12.57;;;0.50;99.90;;;;;;4930403;28;20486;-66
2022/11/20 03:48:56;;;;;;;19.27;12.63;;;0.50;99.90;;;;;;4935878;29;20097;-66
2022/11/20 03:51:24;;;;;;;17.85;12.32;;;0.50;99.90;;;;;;4940223;29;20058;-66
2022/11/20 03:53:51;;;;;;;20.02;12.95;;;0.60;99.90;;;;;;4940684;29;20127;-66
2022/11/20 03:56:20;;;;;;;19.67;12.10;;;0.60;99.90;;;;;;4919375;29;20043;-66
2022/11/20 03:58:45;;;;;;;18.00;11.23;;;0.60;99.90;;;;;;4916662;28;20182;-66
2022/11/20 04:01:14;;;;;;;18.65;11.73;;;0.60;99.90;;;;;;4909453;29;20426;-66
2022/11/20 04:03:41;;;;;;;18.33;11.68;;;0.60;99.90;;;;;;4940477;29;20051;-66
2022/11/20 04:06:13;;;;;;;17.67;11.63;;;0.60;99.90;;;;;;4946748;28;20043;-66
2022/11/20 04:08:39;;;;;;;16.08;11.40;;;0.60;99.90;;;;;;4900146;29;20090;-66
2022/11/20 04:11:19;;;;;;;19.17;11.85;;;0.60;99.90;;;;;;4924204;29;20542;-66
2022/11/20 04:13:48;;;;;;;16.95;11.45;;;0.70;99.90;;;;;;4941328;29;20418;-66
2022/11/20 04:16:14;;;;;;;18.08;11.00;;;0.70;99.90;;;;;;4934099;29;20482;-66
2022/11/20 04:18:40;;;;;;;15.68;10.85;;;0.70;99.90;;;;;;4932912;29;20591;-66
2022/11/20 04:21:06;;;;;;;16.38;11.00;;;0.70;99.90;;;;;;4933422;29;20051;-66
2022/11/20 04:23:33;;;;;;;19.75;11.68;;;0.70;99.90;;;;;;4934572;29;20054;-66
2022/11/20 04:26:10;;;;;;;16.17;10.50;;;0.70;99.90;;;;;;4930546;29;20386;-66
2022/11/20 04:28:37;;;;;;;15.32;10.48;;;0.70;99.90;;;;;;4913522;29;20051;-66
2022/11/20 04:31:17;;;;;;;16.75;10.10;;;0.70;99.90;;;;;;4929866;29;20043;-67
2022/11/20 04:33:44;;;;;;;16.13;10.43;;;0.70;99.90;;;;;;4931718;29;20047;-66
2022/11/20 04:36:18;;;;;;;17.90;10.40;;;0.70;99.90;;;;;;4930535;28;20067;-66
2022/11/20 04:38:44;;;;;;;16.48;10.27;;;0.70;99.90;;;;;;4917090;29;20066;-66
2022/11/20 04:41:16;;;;;;;15.70;10.70;;;0.70;99.90;;;;;;4922873;29;20051;-66
2022/11/20 04:43:47;;;;;;;13.95;9.57;;;0.80;99.90;;;;;;4918173;29;20787;-66
2022/11/20 04:46:13;;;;;;;15.80;10.38;;;0.80;99.90;;;;;;4923426;29;20040;-66
2022/11/20 04:48:39;;;;;;;16.80;10.50;;;0.80;99.90;;;;;;4885404;29;20061;-66
2022/11/20 04:51:05;;;;;;;13.90;9.50;;;0.80;99.90;;;;;;4907624;29;20086;-66
2022/11/20 04:53:31;;;;;;;17.42;10.75;;;0.80;99.90;;;;;;4921235;29;20062;-66
2022/11/20 04:56:06;;;;;;;14.98;10.05;;;0.80;99.90;;;;;;4930840;28;20051;-66
2022/11/20 04:58:33;;;;;;;16.40;10.20;;;0.80;99.90;;;;;;4933466;29;20113;-67
2022/11/20 05:01:12;;;;;;;14.95;10.60;;;0.80;99.90;;;;;;4907184;29;20127;-66
2022/11/20 05:03:38;;;;;;;15.68;11.27;;;0.80;99.90;;;;;;4935382;28;20134;-66
2022/11/20 05:06:05;;;;;;;17.00;10.82;;;0.70;99.90;;;;;;4926503;29;20473;-66
2022/11/20 05:08:31;;;;;;;15.50;10.93;;;0.80;99.90;;;;;;4901577;29;20118;-66
2022/11/20 05:11:03;;;;;;;16.45;10.93;;;0.80;99.90;;;;;;4927789;29;20048;-66
2022/11/20 05:13:29;;;;;;;16.50;11.57;;;0.80;99.90;;;;;;4912273;29;20051;-66
2022/11/20 05:15:54;;;;;;;15.55;11.38;;;0.80;99.90;;;;;;4926286;29;20055;-66
2022/11/20 05:18:20;;;;;;;15.60;10.88;;;0.80;99.90;;;;;;4917749;29;20055;-66
2022/11/20 05:20:46;;;;;;;18.13;11.55;;;0.80;99.90;;;;;;4918822;29;20409;-66
2022/11/20 05:23:12;;;;;;;16.05;11.27;;;0.80;99.90;;;;;;4919894;29;20051;-66
2022/11/20 05:25:38;;;;;;;19.50;11.98;;;0.80;99.90;;;;;;4904566;29;20054;-66
2022/11/20 05:28:03;;;;;;;16.25;11.48;;;0.80;99.90;;;;;;4906776;29;20056;-66
2022/11/20 05:30:29;;;;;;;16.13;11.15;;;0.80;99.90;;;;;;4935108;29;20513;-66
2022/11/20 05:32:55;;;;;;;17.10;11.57;;;0.80;99.90;;;;;;4927459;29;20044;-66
2022/11/20 05:35:21;;;;;;;16.88;10.85;;;0.80;99.90;;;;;;4927195;29;20047;-66
2022/11/20 05:37:46;;;;;;;17.67;11.32;;;0.80;99.90;;;;;;4927096;28;20071;-66
2022/11/20 05:40:13;;;;;;;16.15;10.60;;;0.80;99.90;;;;;;4899849;29;20132;-66
2022/11/20 05:42:38;;;;;;;15.13;10.40;;;0.80;99.90;;;;;;4900030;29;20134;-66
2022/11/20 05:45:05;;;;;;;17.25;10.75;;;0.80;99.90;;;;;;4890541;29;20044;-66
2022/11/20 05:47:33;;;;;;;13.55;10.23;;;0.90;99.90;;;;;;4913501;29;20087;-67
2022/11/20 05:49:59;;;;;;;15.27;10.80;;;0.90;99.90;;;;;;4899818;29;20112;-66
2022/11/20 05:52:28;;;;;;;15.48;10.90;;;0.90;99.90;;;;;;4884636;29;20490;-66
2022/11/20 05:54:54;;;;;;;16.70;11.20;;;0.90;99.90;;;;;;4868621;29;20446;-66
2022/11/20 05:57:20;;;;;;;14.93;10.30;;;0.90;99.90;;;;;;4907414;29;20058;-66
2022/11/20 05:59:46;;;;;;;15.88;11.40;;;0.90;99.90;;;;;;4891590;29;20058;-66
2022/11/20 06:02:11;;;;;;;16.05;11.45;;;0.80;99.90;;;;;;4890485;29;20146;-66
2022/11/20 06:04:37;;;;;;;15.32;10.88;;;0.90;99.90;;;;;;4899872;29;20087;-66
2022/11/20 06:07:05;;;;;;;16.85;10.95;;;0.80;99.90;;;;;;4865396;29;20102;-66
2022/11/20 06:09:31;;;;;;;16.13;10.70;;;0.90;99.90;;;;;;4884169;29;20075;-66
2022/11/20 06:11:57;;;;;;;14.63;10.48;;;0.90;99.90;;;;;;4913725;29;20198;-71
2022/11/20 06:14:22;;;;;;;14.75;10.15;;;0.90;99.90;;;;;;4906766;29;20066;-70
2022/11/20 06:16:48;;;;;;;15.73;10.63;;;0.90;99.90;;;;;;4887709;29;20103;-71
2022/11/20 06:19:15;;;;;;;16.80;10.68;;;0.90;99.90;;;;;;4907772;29;20052;-70
2022/11/20 06:21:40;;;;;;;13.02;9.90;;;0.80;99.90;;;;;;4883828;29;20122;-70
2022/11/20 06:24:08;;;;;;;17.35;10.82;;;0.90;99.90;;;;;;4889118;29;20040;-70
2022/11/20 06:26:34;;;;;;;14.05;10.07;;;0.90;99.90;;;;;;4901828;29;20075;-68
2022/11/20 06:29:00;;;;;;;15.68;10.30;;;0.90;99.90;;;;;;4915445;29;20162;-70
2022/11/20 06:31:26;;;;;;;15.95;10.30;;;0.90;99.90;;;;;;4900941;29;20055;-70
2022/11/20 06:33:52;;;;;;;16.45;10.60;;;0.90;99.90;;;;;;4907413;29;20044;-70
2022/11/20 06:36:20;;;;;;;16.25;10.20;;;0.90;99.90;;;;;;4870093;29;20052;-70
2022/11/20 06:38:46;;;;;;;15.07;10.43;;;0.90;99.90;;;;;;4921032;29;20430;-70
2022/11/20 06:41:14;;;;;;;14.77;10.15;;;0.90;99.90;;;;;;4936680;29;20055;-71
2022/11/20 06:43:40;;;;;;;14.88;10.18;;;0.90;99.90;;;;;;4935840;29;20122;-66
2022/11/20 06:46:08;;;;;;;13.40;9.27;;;0.90;99.90;;;;;;4932164;28;20050;-66
2022/11/20 06:48:34;;;;;;;14.65;10.00;;;0.90;99.90;;;;;;4929536;28;20062;-66
2022/11/20 06:51:02;;;;;;;15.60;10.25;;;0.90;99.90;;;;;;4929920;29;20853;-66
2022/11/20 06:53:28;;;;;;;14.13;9.90;;;0.90;99.90;;;;;;4925329;29;20051;-66
2022/11/20 06:55:57;;;;;;;14.75;9.60;;;0.90;99.90;;;;;;4932036;28;20790;-66
2022/11/20 06:58:26;;;;;;;13.75;9.68;;;1.10;99.90;;;;;;4932972;29;20050;-66
2022/11/20 07:00:51;;;;;;;13.45;9.80;;;0.90;99.90;;;;;;4935402;29;20059;-66
2022/11/20 07:03:17;;;;;;;15.82;10.15;;;1.00;99.90;;;;;;4919701;29;20082;-66
2022/11/20 07:05:43;;;;;;;12.68;9.00;;;0.90;99.90;;;;;;4935741;29;20055;-66
2022/11/20 07:08:09;;;;;;;14.45;9.85;;;1.00;99.90;;;;;;4935490;29;20051;-66
2022/11/20 07:10:35;;;;;;;14.18;9.65;;;1.00;99.90;;;;;;4933417;29;20047;-66
2022/11/20 07:13:01;;;;;;;14.65;9.57;;;1.00;99.90;;;;;;4939826;29;20521;-66
2022/11/20 07:15:27;;;;;;;13.82;9.48;;;1.00;99.90;;;;;;4932263;29;20086;-66
2022/11/20 07:17:53;;;;;;;14.32;9.55;;;1.00;99.90;;;;;;4920850;29;20063;-66
2022/11/20 07:20:18;;;;;;;15.50;10.30;;;1.00;99.90;;;;;;4933823;28;20039;-66
2022/11/20 07:22:44;;;;;;;15.63;9.73;;;1.10;99.90;;;;;;4918402;29;20048;-66
2022/11/20 07:25:10;;;;;;;16.67;9.70;;;1.10;99.90;;;;;;4934819;29;20056;-66
2022/11/20 07:27:36;;;;;;;16.73;10.15;;;1.10;99.90;;;;;;4932870;29;20051;-66
2022/11/20 07:30:03;;;;;;;14.68;10.40;;;1.10;99.90;;;;;;4918607;29;20366;-66
2022/11/20 07:32:29;;;;;;;14.25;10.10;;;1.10;99.90;;;;;;4902172;29;20123;-66
2022/11/20 07:34:55;;;;;;;14.45;9.52;;;1.10;99.90;;;;;;4915582;29;20057;-66
2022/11/20 07:37:21;;;;;;;13.57;10.02;;;1.20;99.90;;;;;;4930051;29;20051;-66
2022/11/20 07:39:46;;;;;;;13.77;10.07;;;1.20;99.90;;;;;;4902594;29;20056;-66
2022/11/20 07:42:12;;;;;;;13.90;9.57;;;1.30;99.90;;;;;;4901668;29;20106;-66
2022/11/20 07:44:39;;;;;;;14.70;10.18;;;1.20;99.90;;;;;;4905235;29;20171;-66
2022/11/20 07:47:05;;;;;;;14.88;9.77;;;1.20;99.90;;;;;;4886608;29;20130;-66
2022/11/20 07:49:31;;;;;;;14.10;9.80;;;1.20;99.90;;;;;;4883175;29;20712;-66
2022/11/20 07:51:56;;;;;;;13.60;9.50;;;1.20;99.90;;;;;;4894518;29;20083;-66
2022/11/20 07:54:22;;;;;;;16.05;10.48;;;1.20;99.90;;;;;;4896842;29;20082;-66
2022/11/20 07:56:49;;;;;;;15.98;9.75;;;1.20;99.90;;;;;;4896739;29;20056;-66
2022/11/20 07:59:15;;;;;;;14.63;8.98;;;1.30;99.90;;;;;;4879185;29;20107;-66
2022/11/20 08:01:42;;;;;;;16.10;10.07;;;1.30;99.90;;;;;;4848291;29;20056;-66
2022/11/20 08:04:09;;;;;;;16.17;9.98;;;1.30;99.90;;;;;;4873090;29;20055;-66
2022/11/20 08:06:35;;;;;;;15.38;9.75;;;1.30;99.90;;;;;;4868966;29;20047;-66
2022/11/20 08:09:02;;;;;;;13.48;9.15;;;1.30;99.90;;;;;;4888819;29;20130;-67
2022/11/20 08:14:12;;;;;;;14.13;9.48;;;1.30;99.90;;;;;;4900874;29;20059;-66
2022/11/20 08:16:42;;;;;;;15.13;10.48;;;1.40;99.90;;;;;;4895391;29;20048;-66
2022/11/20 08:19:08;;;;;;;13.00;9.23;;;1.40;99.90;;;;;;4895117;29;20178;-66
2022/11/20 08:21:34;;;;;;;15.15;9.32;;;1.40;99.90;;;;;;4898780;29;20113;-66
2022/11/20 08:24:00;;;;;;;14.40;10.00;;;1.40;99.90;;;;;;4893653;29;20212;-66
2022/11/20 08:26:26;;;;;;;13.13;9.52;;;1.40;99.90;;;;;;4885424;29;20044;-66
2022/11/20 08:28:57;;;;;;;12.45;9.07;;;1.40;99.90;;;;;;4890991;29;20051;-66
2022/11/20 08:31:24;;;;;;;15.82;10.35;;;1.50;99.90;;;;;;4907142;29;20040;-66
2022/11/20 08:33:50;;;;;;;13.93;9.77;;;1.50;99.90;;;;;;4898246;29;20052;-66
2022/11/20 08:36:16;;;;;;;14.38;9.25;;;1.50;99.90;;;;;;4892625;29;20662;-66
2022/11/20 08:38:46;;;;;;;13.00;9.50;;;1.50;99.90;;;;;;4910089;29;20486;-66
2022/11/20 08:41:25;;;;;;;13.80;9.40;;;1.50;99.90;;;;;;4930695;29;20153;-66
2022/11/20 08:43:56;;;;;;;13.63;9.85;;;1.50;99.90;;;;;;4939492;29;20858;-66
2022/11/20 08:46:24;;;;;;;14.10;9.82;;;1.50;99.90;;;;;;4928436;29;20043;-66
2022/11/20 08:48:50;;;;;;;14.10;9.52;;;1.60;99.90;;;;;;4925061;29;20051;-66
2022/11/20 08:51:17;;;;;;;16.02;10.52;;;1.60;99.90;;;;;;4911837;29;20095;-66
2022/11/20 08:53:43;;;;;;;15.07;10.90;;;1.60;99.90;;;;;;4928016;28;20088;-66
2022/11/20 08:56:09;;;;;;;16.55;11.50;;;1.60;99.90;;;;;;4909137;29;20596;-66
2022/11/20 08:58:35;;;;;;;16.08;11.27;;;1.70;99.90;;;;;;4927489;29;20520;-66
2022/11/20 09:01:01;;;;;;;16.80;11.05;;;1.60;99.90;;;;;;4914944;29;20158;-66
2022/11/20 09:03:27;;;;;;;15.23;10.85;;;1.60;99.90;;;;;;4925273;29;20051;-66
2022/11/20 09:06:05;;;;;;;14.25;9.73;;;1.70;99.90;;;;;;4909963;29;20051;-66
2022/11/20 09:08:32;;;;;;;14.85;10.65;;;1.70;99.90;;;;;;4929253;29;20052;-66
2022/11/20 09:10:58;;;;;;;14.15;10.15;;;1.70;99.90;;;;;;4941194;28;20052;-66
2022/11/20 09:13:26;;;;;;;15.25;10.65;;;1.70;99.90;;;;;;4927488;29;20062;-66
2022/11/20 09:16:01;;;;;;;16.98;11.38;;;1.70;99.90;;;;;;4926886;28;20103;-66
2022/11/20 09:18:28;;;;;;;19.10;11.15;;;1.70;99.90;;;;;;4925857;29;20051;-66
2022/11/20 09:21:01;;;;;;;16.30;10.57;;;1.70;99.90;;;;;;4932528;29;20066;-66
2022/11/20 09:23:30;;;;;;;14.75;10.88;;;1.70;99.90;;;;;;4916360;29;20486;-66
2022/11/20 09:25:59;;;;;;;14.38;10.15;;;1.70;99.90;;;;;;4927525;29;20094;-66
2022/11/20 09:28:28;;;;;;;14.80;10.88;;;1.70;99.90;;;;;;4930768;28;20102;-66
2022/11/20 09:30:53;;;;;;;17.10;10.85;;;1.70;99.90;;;;;;4926841;29;20051;-67
2022/11/20 09:33:19;;;;;;;14.35;10.80;;;1.80;99.90;;;;;;4916233;29;20256;-66
2022/11/20 09:35:45;;;;;;;15.40;11.02;;;1.70;99.90;;;;;;4924200;28;20055;-66
2022/11/20 09:38:11;;;;;;;14.13;10.63;;;1.70;99.90;;;;;;4920127;28;20083;-66
2022/11/20 09:40:45;;;;;;;14.85;11.02;;;1.80;99.90;;;;;;4918850;28;20410;-66
2022/11/20 09:43:29;;;;;;;16.35;11.00;;;1.80;99.90;;;;;;4921192;28;20051;-66
2022/11/20 09:46:22;;;;;;;15.13;10.60;;;1.90;99.90;;;;;;4924871;28;20055;-66
2022/11/20 09:49:17;;;;;;;13.68;9.98;;;1.90;99.90;;;;;;4921944;28;20123;-66
2022/11/20 09:52:12;;;;;;;16.65;11.07;;;1.90;99.90;;;;;;4924591;28;20158;-66
2022/11/20 09:54:40;;;;;;;14.75;10.40;;;2.00;99.90;;;;;;4909132;29;20117;-66
2022/11/20 09:57:12;;;;;;;15.05;10.70;;;2.00;99.90;;;;;;4923372;28;20110;-66
2022/11/20 09:59:53;;;;;;;14.30;10.50;;;2.00;99.90;;;;;;4926752;28;20126;-66
2022/11/20 10:02:34;;;;;;;14.75;10.30;;;2.00;99.90;;;;;;4918682;28;20055;-66
2022/11/20 10:05:30;;;;;;;16.77;10.48;;;2.10;99.90;;;;;;4905370;28;20057;-66
2022/11/20 10:08:17;;;;;;;15.68;10.45;;;2.10;99.90;;;;;;4920201;28;20093;-66
2022/11/20 10:11:00;;;;;;;15.60;10.43;;;2.20;99.90;;;;;;4921818;29;20043;-66
2022/11/20 10:13:58;;;;;;;18.30;10.98;;;2.20;99.90;;;;;;4921683;28;20054;-66
2022/11/20 10:16:30;;;;;;;14.90;9.70;;;2.20;99.90;;;;;;4910059;29;20168;-66
2022/11/20 10:19:23;;;;;;;15.80;11.02;;;2.20;99.90;;;;;;4917345;28;20105;-66
2022/11/20 10:22:20;;;;;;;15.63;10.40;;;2.20;99.90;;;;;;4922425;28;20051;-66
2022/11/20 10:25:04;;;;;;;14.50;10.48;;;2.20;99.90;;;;;;4910126;28;20047;-66
2022/11/20 10:27:52;;;;;;;14.15;9.57;;;2.20;99.90;;;;;;4924669;28;20548;-66
2022/11/20 10:30:21;;;;;;;13.73;9.60;;;2.20;99.90;;;;;;4906248;28;20047;-66
2022/11/20 10:33:04;;;;;;;15.25;10.68;;;2.20;99.90;;;;;;4907947;28;20047;-66
2022/11/20 10:35:35;;;;;;;;;;;2.40;99.90;;;;;;4919500;28;20055;-66
2022/11/20 10:38:09;;;;;;;15.02;9.82;;;2.30;99.90;;;;;;4918886;28;19918;-66
2022/11/20 10:40:48;;;;;;;15.38;9.80;;;2.40;99.90;;;;;;4924767;28;20051;-66
2022/11/20 10:43:43;;;;;;;14.02;8.88;;;2.50;99.90;;;;;;4924004;28;20114;-65
2022/11/20 10:46:18;;;;;;;13.95;8.73;;;2.60;99.90;;;;;;4919033;29;20177;-66
2022/11/20 10:48:45;;;;;;;13.25;9.38;;;2.80;99.90;;;;;;4909095;29;20658;-66
2022/11/20 10:51:34;;;;;;;12.88;9.15;;;2.90;99.90;;;;;;4911940;29;20135;-66
2022/11/20 10:54:28;;;;;;;14.65;9.90;;;3.00;99.90;;;;;;4921939;28;20043;-66
2022/11/20 10:57:00;;;;;;;14.55;9.43;;;3.10;99.90;;;;;;4919392;28;20051;-66
2022/11/20 10:59:37;;;;;;;13.85;10.02;;;3.20;99.90;;;;;;4923228;29;20802;-66
2022/11/20 11:02:24;;;;;;;15.30;10.07;;;3.20;99.90;;;;;;4924906;28;20106;-66
2022/11/20 11:04:52;;;;;;;14.80;9.15;;;3.30;99.90;;;;;;4926320;28;20051;-66
2022/11/20 11:07:20;;;;;;;12.40;9.05;;;3.30;99.90;;;;;;4922216;28;20521;-66
2022/11/20 11:09:55;;;;;;;14.85;8.73;;;3.30;99.90;;;;;;4908926;28;20401;-66
2022/11/20 11:12:24;;;;;;;13.02;9.15;;;3.30;99.90;;;;;;4923266;29;20319;-66
2022/11/20 11:14:52;;;;;;;13.93;8.25;;;3.30;99.90;;;;;;4924170;28;20051;-66
2022/11/20 11:17:23;;;;;;;13.52;8.57;;;3.20;99.90;;;;;;4926226;28;20122;-66
2022/11/20 11:20:10;;;;;;;13.35;8.85;;;3.20;99.90;;;;;;4908245;29;21509;-66
2022/11/20 11:23:04;;;;;;;13.10;8.75;;;3.20;99.90;;;;;;4924653;28;20752;-66
2022/11/20 11:25:33;;;;;;;14.65;8.48;;;3.20;99.90;;;;;;4915603;28;20066;-66
2022/11/20 11:28:05;;;;;;;10.88;8.27;;;3.10;99.90;;;;;;4907812;29;21045;-66
2022/11/20 11:30:43;;;;;;;12.10;8.75;;;3.00;99.90;;;;;;4920288;28;20649;-66
2022/11/20 11:33:19;;;;;;;11.95;8.50;;;3.00;99.90;;;;;;4921525;28;20057;-66
2022/11/20 11:35:48;;;;;;;12.25;8.77;;;3.00;99.90;;;;;;4920191;29;20061;-66
2022/11/20 11:38:23;;;;;;;13.43;9.23;;;2.90;99.90;;;;;;4922419;28;20063;-66
2022/11/20 11:40:49;;;;;;;11.88;8.57;;;2.90;99.90;;;;;;4905536;28;20513;-66
2022/11/20 11:46:20;;;;;;;13.23;9.27;;;3.00;99.90;;;;;;4923010;28;20418;-66
2022/11/20 11:49:08;;;;;;;11.18;7.82;;;2.90;99.90;;;;;;4906245;29;20087;-66
2022/11/20 11:51:53;;;;;;;12.32;8.00;;;2.80;99.90;;;;;;4924827;28;20134;-66
2022/11/20 11:54:41;;;;;;;13.07;8.77;;;2.80;99.90;;;;;;4911556;29;20040;-66
2022/11/20 11:57:49;;;;;;;11.57;8.13;;;2.80;99.90;;;;;;4907825;28;20043;-66
2022/11/20 12:00:22;;;;;;;12.60;8.60;;;2.90;99.90;;;;;;4899566;29;20106;-66
2022/11/20 12:03:09;;;;;;;12.45;8.55;;;2.90;99.90;;;;;;4922212;28;20052;-66
2022/11/20 12:05:39;;;;;;;11.20;7.82;;;2.90;99.90;;;;;;4920619;29;20121;-66
2022/11/20 12:08:20;;;;;;;10.52;7.70;;;2.90;99.90;;;;;;4924981;28;20161;-66
2022/11/20 12:11:30;;;;;;;10.73;7.80;;;3.00;99.90;;;;;;4936154;28;20051;-66
2022/11/20 12:14:14;;;;;;;11.95;7.70;;;3.00;99.90;;;;;;4918942;28;20043;-66
2022/11/20 12:16:40;;;;;;;9.38;6.72;;;3.10;99.90;;;;;;4924626;28;20054;-66
2022/11/20 12:19:14;;;;;;;8.55;6.30;;;3.20;99.90;;;;;;4921303;28;20494;-66
2022/11/20 12:21:45;;;;;;;10.10;6.63;;;3.30;99.90;;;;;;4905202;29;20047;-66
2022/11/20 12:24:20;;;;;;;8.60;6.30;;;3.40;99.90;;;;;;4927241;28;20435;-66
2022/11/20 12:26:55;;;;;;;8.18;6.20;;;3.50;99.90;;;;;;4925897;29;20048;-66
2022/11/20 12:29:24;;;;;;;8.23;6.10;;;3.50;99.90;;;;;;4919272;28;20055;-66
2022/11/20 12:32:15;;;;;;;7.15;4.88;;;3.70;99.90;;;;;;4923381;28;20553;-66
2022/11/20 12:34:48;;;;;;;7.57;4.90;;;3.90;99.90;;;;;;4920233;29;20059;-66
2022/11/20 12:37:19;;;;;;;;;;;4.10;99.90;;;;;;4920194;28;20106;-66
2022/11/20 12:39:50;;;;;;;5.40;3.97;;;4.20;99.90;;;;;;4913616;28;20284;-66
2022/11/20 12:45:32;;;;;;;6.82;4.72;;;4.30;99.90;;;;;;4922275;28;20051;-66
2022/11/20 12:48:16;;;;;;;6.47;4.78;;;4.30;99.90;;;;;;4923524;28;20043;-66
2022/11/20 12:51:09;;;;;;;6.22;4.50;;;4.20;99.90;;;;;;4919998;28;20169;-66
2022/11/20 12:53:53;;;;;;;7.03;4.65;;;4.10;99.90;;;;;;4916100;28;20035;-66
2022/11/20 12:56:28;;;;;;;6.82;4.65;;;4.10;99.90;;;;;;4920646;28;20051;-66
2022/11/20 12:59:02;;;;;;;5.55;4.30;;;4.00;99.90;;;;;;4931716;28;20773;-67
2022/11/20 13:02:04;;;;;;;7.13;4.63;;;4.00;99.90;;;;;;4920894;28;20066;-66
2022/11/20 13:04:45;;;;;;;6.15;4.88;;;3.90;99.90;;;;;;4838723;28;20057;-66
2022/11/20 13:07:14;;;;;;;5.72;4.50;;;3.90;99.90;;;;;;4902680;28;20047;-66
2022/11/20 13:09:47;;;;;;;6.07;4.63;;;3.90;99.90;;;;;;4920384;28;20047;-66